createdAt,value
2019-01-18T00:01:25.793Z,97828.66
2019-01-18T00:03:56.048Z,97830.71
2019-01-18T00:06:26.244Z,97827.17
2019-01-18T00:08:56.475Z,97833.98
2019-01-18T00:11:26.684Z,97836.30
2019-01-18T00:13:57.032Z,97841.30
2019-01-18T00:16:27.358Z,97848.11
2019-01-18T00:18:57.486Z,97851.75
2019-01-18T00:21:28.064Z,97856.55
2019-01-18T00:23:58.532Z,97859.06
2019-01-18T00:26:28.840Z,97854.60
2019-01-18T00:28:59.136Z,97858.09
2019-01-18T00:31:29.291Z,97852.41
2019-01-18T00:33:59.473Z,97852.52
2019-01-18T00:36:29.737Z,97846.77
2019-01-18T00:38:59.996Z,97844.72
2019-01-18T00:41:30.450Z,97847.12
2019-01-18T00:44:00.816Z,97847.48
2019-01-18T00:46:31.140Z,97853.52
2019-01-18T00:49:01.302Z,97860.83
2019-01-18T00:51:31.454Z,97863.53
2019-01-18T00:54:01.724Z,97860.36
2019-01-18T00:56:32.034Z,97862.25
2019-01-18T00:59:02.249Z,97865.13
2019-01-18T01:01:32.409Z,97865.86
2019-01-18T01:04:02.691Z,97875.88
2019-01-18T01:06:32.921Z,97878.54
2019-01-18T01:09:03.744Z,97880.38
2019-01-18T01:11:34.029Z,97878.08
2019-01-18T01:14:04.396Z,97877.41
2019-01-18T01:16:34.560Z,97888.56
2019-01-18T01:19:04.870Z,97887.76
2019-01-18T01:21:35.208Z,97884.27
2019-01-18T01:24:05.356Z,97894.62
2019-01-18T01:26:35.460Z,97904.28
2019-01-18T01:29:05.941Z,97904.28
2019-01-18T01:31:36.341Z,97904.88
2019-01-18T01:34:06.901Z,97903.41
2019-01-18T01:36:37.091Z,97913.70
2019-01-18T01:39:09.914Z,97916.36
2019-01-18T01:41:40.281Z,97914.68
2019-01-18T01:44:10.561Z,97917.84
2019-01-18T01:46:40.918Z,97923.01
2019-01-18T01:49:11.185Z,97920.81
2019-01-18T01:51:41.335Z,97924.56
2019-01-18T01:54:11.720Z,97925.88
2019-01-18T01:56:41.880Z,97932.64
2019-01-18T01:59:12.006Z,97940.63
2019-01-18T02:01:42.220Z,97936.58
2019-01-18T02:04:12.482Z,97939.59
2019-01-18T02:06:42.615Z,97946.52
2019-01-18T02:09:12.755Z,97945.02
2019-01-18T02:11:43.095Z,97945.78
2019-01-18T02:14:13.606Z,97944.35
2019-01-18T02:16:43.953Z,97947.31
2019-01-18T02:19:14.304Z,97943.54
2019-01-18T02:21:44.602Z,97956.38
2019-01-18T02:24:14.790Z,97953.66
2019-01-18T02:26:45.030Z,97966.20
2019-01-18T02:29:15.359Z,97965.44
2019-01-18T02:31:45.692Z,97970.25
2019-01-18T02:34:15.816Z,97974.90
2019-01-18T02:36:45.948Z,97974.68
2019-01-18T02:39:16.139Z,97977.75
2019-01-18T02:41:46.367Z,97989.78
2019-01-18T02:44:16.739Z,97989.48
2019-01-18T02:46:47.386Z,97996.13
2019-01-18T02:49:17.645Z,98000.12
2019-01-18T02:51:47.911Z,98004.61
2019-01-18T02:54:18.161Z,98007.45
2019-01-18T02:56:48.523Z,98009.41
2019-01-18T02:59:18.694Z,97999.09
2019-01-18T03:01:49.078Z,98008.20
2019-01-18T03:04:27.041Z,98006.06
2019-01-18T03:06:57.454Z,98010.60
2019-01-18T03:09:28.042Z,98014.30
2019-01-18T03:11:58.160Z,98016.66
2019-01-18T03:14:28.553Z,98021.97
2019-01-18T03:16:58.795Z,98024.23
2019-01-18T03:19:28.993Z,98023.22
2019-01-18T03:21:59.232Z,98027.00
2019-01-18T03:24:29.426Z,98022.56
2019-01-18T03:26:59.691Z,98029.27
2019-01-18T03:29:29.923Z,98032.20
2019-01-18T03:32:00.180Z,98033.20
2019-01-18T03:34:30.322Z,98039.97
2019-01-18T03:37:00.860Z,98041.10
2019-01-18T03:39:31.371Z,98051.55
2019-01-18T03:42:01.599Z,98045.36
2019-01-18T03:44:31.763Z,98046.12
2019-01-18T03:47:02.178Z,98055.49
2019-01-18T03:49:33.261Z,98049.35
2019-01-18T03:52:03.411Z,98061.62
2019-01-18T03:54:33.667Z,98055.44
2019-01-18T03:57:03.826Z,98065.25
2019-01-18T03:59:33.939Z,98060.00
2019-01-18T04:02:04.230Z,98066.39
2019-01-18T04:04:34.450Z,98066.44
2019-01-18T04:07:04.640Z,98069.31
2019-01-18T04:09:34.854Z,98068.59
2019-01-18T04:12:05.453Z,98076.16
2019-01-18T04:14:35.970Z,98076.16
2019-01-18T04:17:06.164Z,98066.63
2019-01-18T04:19:36.518Z,98073.31
2019-01-18T04:22:06.875Z,98070.20
2019-01-18T04:24:37.095Z,98073.64
2019-01-18T04:27:07.240Z,98070.66
2019-01-18T04:29:37.310Z,98071.69
2019-01-18T04:32:07.507Z,98068.76
2019-01-18T04:34:37.822Z,98069.78
2019-01-18T04:37:07.926Z,98070.28
2019-01-18T04:39:38.087Z,98072.26
2019-01-18T04:42:08.496Z,98072.39
2019-01-18T04:44:38.690Z,98082.10
2019-01-18T04:47:09.033Z,98080.58
2019-01-18T04:49:39.171Z,98080.94
2019-01-18T04:52:09.331Z,98087.47
2019-01-18T04:54:39.445Z,98088.41
2019-01-18T04:57:09.590Z,98088.41
2019-01-18T04:59:39.707Z,98091.00
2019-01-18T05:02:09.854Z,98097.95
2019-01-18T05:04:40.146Z,98095.29
2019-01-18T05:07:10.444Z,98099.55
2019-01-18T05:09:40.550Z,98100.25
2019-01-18T05:12:10.675Z,98101.22
2019-01-18T05:14:40.976Z,98101.91
2019-01-18T05:17:11.280Z,98105.33
2019-01-18T05:19:41.668Z,98104.05
2019-01-18T05:22:11.839Z,98121.41
2019-01-18T05:24:49.345Z,98110.52
2019-01-18T05:27:14.649Z,98115.90
2019-01-18T05:29:44.940Z,98126.53
2019-01-18T05:32:15.331Z,98132.64
2019-01-18T05:34:45.441Z,98138.27
2019-01-18T05:37:15.727Z,98138.39
2019-01-18T05:39:45.956Z,98143.98
2019-01-18T05:42:16.144Z,98153.86
2019-01-18T05:44:46.252Z,98157.01
2019-01-18T05:47:16.586Z,98158.42
2019-01-18T05:49:46.792Z,98163.72
2019-01-18T05:52:16.935Z,98168.09
2019-01-18T05:54:47.165Z,98171.73
2019-01-18T05:57:17.497Z,98171.73
2019-01-18T05:59:47.680Z,98179.89
2019-01-18T06:02:17.815Z,98186.97
2019-01-18T06:04:49.396Z,98190.38
2019-01-18T06:07:19.893Z,98188.81
2019-01-18T06:09:50.162Z,98192.98
2019-01-18T06:12:20.551Z,98190.90
2019-01-18T06:14:50.732Z,98199.97
2019-01-18T06:17:21.487Z,98199.39
2019-01-18T06:19:51.752Z,98204.66
2019-01-18T06:22:22.080Z,98201.54
2019-01-18T06:24:52.215Z,98205.17
2019-01-18T06:27:23.149Z,98202.99
2019-01-18T06:29:53.585Z,98206.29
2019-01-18T06:32:23.897Z,98202.56
2019-01-18T06:34:54.167Z,98207.44
2019-01-18T06:37:24.392Z,98212.22
2019-01-18T06:39:54.756Z,98215.75
2019-01-18T06:42:24.903Z,98208.53
2019-01-18T06:44:55.136Z,98217.53
2019-01-18T06:47:25.688Z,98226.00
2019-01-18T06:49:56.027Z,98227.60
2019-01-18T06:52:26.462Z,98232.92
2019-01-18T06:54:56.580Z,98232.17
2019-01-18T06:57:27.428Z,98228.77
2019-01-18T06:59:57.760Z,98235.14
2019-01-18T07:02:28.223Z,98236.78
2019-01-18T07:04:58.362Z,98247.02
2019-01-18T07:07:28.577Z,98252.78
2019-01-18T07:09:58.746Z,98263.66
2019-01-18T07:12:29.645Z,98259.80
2019-01-18T07:15:00.046Z,98265.08
2019-01-18T07:17:30.361Z,98268.32
2019-01-18T07:20:00.577Z,98270.70
2019-01-18T07:22:30.884Z,98274.52
2019-01-18T07:25:01.084Z,98280.99
2019-01-18T07:27:31.390Z,98277.58
2019-01-18T07:30:01.530Z,98276.89
2019-01-18T07:32:31.926Z,98279.37
2019-01-18T07:35:02.398Z,98279.37
2019-01-18T07:37:32.698Z,98283.95
2019-01-18T07:40:03.150Z,98290.15
2019-01-18T07:42:33.262Z,98288.06
2019-01-18T07:45:04.192Z,98301.66
2019-01-18T07:47:34.632Z,98302.36
2019-01-18T07:50:05.644Z,98299.31
2019-01-18T07:52:38.839Z,98302.30
2019-01-18T07:55:09.654Z,98299.39
2019-01-18T07:57:40.097Z,98307.39
2019-01-18T08:00:17.312Z,98301.09
2019-01-18T08:02:47.797Z,98308.08
2019-01-18T08:05:17.939Z,98307.23
2019-01-18T08:07:48.184Z,98316.31
2019-01-18T08:10:19.315Z,98318.16
2019-01-18T08:12:49.545Z,98315.03
2019-01-18T08:15:22.251Z,98313.26
2019-01-18T08:17:52.435Z,98327.06
2019-01-18T08:20:25.386Z,98321.52
2019-01-18T08:22:56.693Z,98327.72
2019-01-18T08:25:27.058Z,98328.62
2019-01-18T08:27:58.068Z,98335.70
2019-01-18T08:30:29.962Z,98333.89
2019-01-18T08:33:00.297Z,98332.29
2019-01-18T08:35:32.726Z,98334.55
2019-01-18T08:38:03.058Z,98340.22
2019-01-18T08:40:41.185Z,98342.77
2019-01-18T08:43:13.054Z,98349.06
2019-01-18T08:45:51.973Z,98350.70
2019-01-18T08:48:22.376Z,98355.09
2019-01-18T08:50:53.261Z,98359.02
2019-01-18T08:53:23.659Z,98356.88
2019-01-18T08:56:00.596Z,98358.34
2019-01-18T08:58:30.996Z,98359.08
2019-01-18T09:01:01.384Z,98363.19
2019-01-18T09:03:31.537Z,98362.20
2019-01-18T09:06:02.119Z,98370.16
2019-01-18T09:08:32.539Z,98374.59
2019-01-18T09:11:02.774Z,98371.15
2019-01-18T09:13:35.661Z,98378.16
2019-01-18T09:16:06.271Z,98386.04
2019-01-18T09:18:36.553Z,98386.72
2019-01-18T09:21:14.046Z,98387.79
2019-01-18T09:23:44.506Z,98389.70
2019-01-18T09:26:14.611Z,98391.95
2019-01-18T09:28:44.806Z,98397.66
2019-01-18T09:31:15.237Z,98402.72
2019-01-18T09:33:45.544Z,98402.67
2019-01-18T09:36:16.258Z,98408.02
2019-01-18T09:38:46.707Z,98406.36
2019-01-18T09:41:17.074Z,98413.72
2019-01-18T09:43:47.398Z,98412.97
2019-01-18T09:46:18.012Z,98413.56
2019-01-18T09:48:48.536Z,98408.16
2019-01-18T09:51:19.373Z,98408.16
2019-01-18T09:53:49.788Z,98408.86
2019-01-18T09:56:20.475Z,98412.88
2019-01-18T09:58:51.264Z,98408.43
2019-01-18T10:01:22.032Z,98407.26
2019-01-18T10:03:52.743Z,98407.36
2019-01-18T10:06:24.929Z,98410.08
2019-01-18T10:08:55.611Z,98415.89
2019-01-18T10:11:26.248Z,98409.91
2019-01-18T10:13:56.688Z,98408.19
2019-01-18T10:16:27.363Z,98406.92
2019-01-18T10:18:57.807Z,98408.09
2019-01-18T10:21:28.297Z,98404.20
2019-01-18T10:23:59.759Z,98403.38
2019-01-18T10:26:30.218Z,98403.38
2019-01-18T10:29:01.859Z,98403.56
2019-01-18T10:31:33.394Z,98404.76
2019-01-18T10:34:06.738Z,98398.39
2019-01-18T10:36:37.059Z,98398.84
2019-01-18T10:39:10.102Z,98393.72
2019-01-18T10:41:40.889Z,98401.78
2019-01-18T10:44:11.380Z,98393.99
2019-01-18T10:46:41.777Z,98395.63
2019-01-18T10:49:12.689Z,98390.72
2019-01-18T10:51:43.096Z,98398.49
2019-01-18T10:54:13.879Z,98392.91
2019-01-18T10:56:44.363Z,98394.94
2019-01-18T10:59:15.181Z,98398.94
2019-01-18T11:01:45.774Z,98397.83
2019-01-18T11:04:17.938Z,98387.70
2019-01-18T11:06:49.579Z,98393.83
2019-01-18T11:09:20.466Z,98389.00
2019-01-18T11:11:50.779Z,98390.02
2019-01-18T11:14:21.644Z,98384.89
2019-01-18T11:16:52.028Z,98391.15
2019-01-18T11:19:22.581Z,98390.42
2019-01-18T11:21:53.875Z,98385.24
2019-01-18T11:24:24.361Z,98391.32
2019-01-18T11:26:55.115Z,98381.05
2019-01-18T11:29:26.020Z,98386.88
2019-01-18T11:31:56.772Z,98383.81
2019-01-18T11:34:26.903Z,98386.31
2019-01-18T11:36:59.086Z,98383.38
2019-01-18T11:39:29.478Z,98383.38
2019-01-18T11:41:59.689Z,98382.23
2019-01-18T11:44:29.888Z,98385.03
2019-01-18T11:47:00.038Z,98377.45
2019-01-18T11:49:30.319Z,98371.95
2019-01-18T11:52:00.754Z,98379.64
2019-01-18T11:54:31.445Z,98370.14
2019-01-18T11:57:01.573Z,98366.42
2019-01-18T11:59:31.784Z,98365.11
2019-01-18T12:02:02.157Z,98372.48
2019-01-18T12:04:32.327Z,98366.48
2019-01-18T12:07:02.660Z,98365.02
2019-01-18T12:09:33.037Z,98359.69
2019-01-18T12:12:03.264Z,98359.55
2019-01-18T12:14:33.434Z,98357.75
2019-01-18T12:17:03.635Z,98355.52
2019-01-18T12:19:33.875Z,98354.12
2019-01-18T12:22:04.533Z,98348.69
2019-01-18T12:24:34.853Z,98352.18
2019-01-18T12:27:05.277Z,98342.66
2019-01-18T12:29:35.600Z,98349.02
2019-01-18T12:32:06.459Z,98341.84
2019-01-18T12:34:36.667Z,98338.04
2019-01-18T12:37:06.965Z,98340.46
2019-01-18T12:39:37.084Z,98335.25
2019-01-18T12:42:07.240Z,98337.02
2019-01-18T12:44:37.453Z,98343.22
2019-01-18T12:47:08.270Z,98335.06
2019-01-18T12:49:38.807Z,98337.39
2019-01-18T12:52:08.973Z,98335.31
2019-01-18T12:54:39.383Z,98335.34
2019-01-18T12:57:10.285Z,98341.44
2019-01-18T12:59:40.620Z,98338.02
2019-01-18T13:02:11.399Z,98338.23
2019-01-18T13:04:42.203Z,98336.05
2019-01-18T13:07:12.477Z,98340.54
2019-01-18T13:09:42.712Z,98343.59
2019-01-18T13:12:12.875Z,98337.52
2019-01-18T13:14:43.419Z,98341.54
2019-01-18T13:17:13.724Z,98340.98
2019-01-18T13:19:44.130Z,98341.08
2019-01-18T13:22:14.575Z,98340.47
2019-01-18T13:24:45.300Z,98342.86
2019-01-18T13:27:15.608Z,98338.39
2019-01-18T13:29:45.844Z,98356.41
2019-01-18T13:32:16.181Z,98341.86
2019-01-18T13:34:48.434Z,98350.36
2019-01-18T13:37:18.782Z,98342.95
2019-01-18T13:39:49.408Z,98345.98
2019-01-18T13:42:19.820Z,98348.62
2019-01-18T13:44:50.041Z,98346.47
2019-01-18T13:47:20.495Z,98339.78
2019-01-18T13:49:50.776Z,98338.34
2019-01-18T13:52:21.323Z,98346.49
2019-01-18T13:54:51.637Z,98342.93
2019-01-18T13:57:22.048Z,98339.38
2019-01-18T13:59:52.218Z,98342.30
2019-01-18T14:02:22.621Z,98345.06
2019-01-18T14:04:52.847Z,98342.98
2019-01-18T14:07:23.065Z,98343.59
2019-01-18T14:09:53.796Z,98348.75
2019-01-18T14:12:24.231Z,98349.45
2019-01-18T14:14:55.007Z,98347.84
2019-01-18T14:17:25.370Z,98352.22
2019-01-18T14:19:55.685Z,98355.09
2019-01-18T14:22:25.939Z,98349.88
2019-01-18T14:24:57.933Z,98348.80
2019-01-18T14:27:31.240Z,98346.87
2019-01-18T14:30:01.761Z,98351.93
2019-01-18T14:32:32.605Z,98354.27
2019-01-18T14:35:03.734Z,98348.60
2019-01-18T14:37:34.161Z,98343.91
2019-01-18T14:40:05.205Z,98347.33
2019-01-18T14:42:35.899Z,98348.50
2019-01-18T14:45:09.352Z,98348.17
2019-01-18T14:47:40.098Z,98352.13
2019-01-18T14:50:15.659Z,98350.33
2019-01-18T14:52:46.462Z,98348.95
2019-01-18T14:55:16.992Z,98357.05
2019-01-18T14:57:47.917Z,98355.06
2019-01-18T15:00:21.033Z,98352.86
2019-01-18T15:02:52.658Z,98358.24
2019-01-18T15:05:23.478Z,98352.13
2019-01-18T15:07:53.974Z,98346.39
2019-01-18T15:10:24.741Z,98349.70
2019-01-18T15:12:59.156Z,98358.44
2019-01-18T15:15:31.125Z,98354.05
2019-01-18T15:18:01.763Z,98355.35
2019-01-18T15:20:32.629Z,98360.48
2019-01-18T15:23:03.282Z,98352.78
2019-01-18T15:25:33.555Z,98364.20
2019-01-18T15:28:04.172Z,98356.91
2019-01-18T15:30:35.275Z,98354.36
2019-01-18T15:33:09.460Z,98355.52
2019-01-18T15:35:39.441Z,98359.27
2019-01-18T15:38:11.486Z,98358.09
2019-01-18T15:40:45.711Z,98352.81
2019-01-18T15:43:18.779Z,98358.70
2019-01-18T15:45:49.124Z,98360.70
2019-01-18T15:48:19.646Z,98353.62
2019-01-18T15:50:49.845Z,98351.05
2019-01-18T15:53:20.401Z,98344.97
2019-01-18T15:55:50.876Z,98344.95
2019-01-18T15:58:24.789Z,98342.86
2019-01-18T16:00:55.174Z,98350.32
2019-01-18T16:03:25.481Z,98338.07
2019-01-18T16:05:55.908Z,98345.47
2019-01-18T16:08:26.410Z,98352.62
2019-01-18T16:10:57.138Z,98344.63
2019-01-18T16:13:28.478Z,98346.58
2019-01-18T16:16:22.729Z,98346.46
2019-01-18T16:18:54.113Z,98349.88
2019-01-18T16:21:24.560Z,98347.52
2019-01-18T16:23:55.208Z,98348.36
2019-01-18T16:26:25.605Z,98351.27
2019-01-18T16:28:55.912Z,98347.70
2019-01-18T16:31:26.943Z,98344.02
2019-01-18T16:33:57.299Z,98348.88
2019-01-18T16:36:27.570Z,98345.05
2019-01-18T16:38:58.349Z,98348.63
2019-01-18T16:41:32.727Z,98351.05
2019-01-18T16:44:03.057Z,98340.55
2019-01-18T16:46:33.395Z,98341.84
2019-01-18T16:49:04.173Z,98338.16
2019-01-18T16:51:34.445Z,98332.86
2019-01-18T16:54:05.377Z,98334.42
2019-01-18T16:56:35.830Z,98330.64
2019-01-18T16:59:06.243Z,98324.05
2019-01-18T17:01:36.460Z,98322.34
2019-01-18T17:04:06.718Z,98316.09
2019-01-18T17:06:38.369Z,98313.80
2019-01-18T17:09:09.828Z,98319.85
2019-01-18T17:11:40.494Z,98323.22
2019-01-18T17:14:10.934Z,98317.55
2019-01-18T17:16:44.919Z,98320.95
2019-01-18T17:19:13.313Z,98315.29
2019-01-18T17:21:43.585Z,98318.53
2019-01-18T17:24:13.881Z,98317.48
2019-01-18T17:26:44.229Z,98316.23
2019-01-18T17:29:14.463Z,98322.88
2019-01-18T17:31:44.963Z,98319.70
2019-01-18T17:34:15.383Z,98317.95
2019-01-18T17:36:58.066Z,98317.79
2019-01-18T17:39:38.181Z,98316.97
2019-01-18T17:42:35.233Z,98315.56
2019-01-18T17:45:38.258Z,98318.38
2019-01-18T17:48:52.346Z,98319.56
2019-01-18T17:52:06.890Z,98315.14
2019-01-18T17:54:56.982Z,98311.16
2019-01-18T17:57:52.590Z,98313.97
2019-01-18T18:01:07.981Z,98321.63
2019-01-18T18:04:08.003Z,98312.33
2019-01-18T18:07:25.315Z,98309.67
2019-01-18T18:10:19.704Z,98315.22
2019-01-18T18:13:39.390Z,98318.84
2019-01-18T18:16:31.254Z,98315.72
2019-01-18T18:19:21.744Z,98319.50
2019-01-18T18:22:34.451Z,98313.38
2019-01-18T18:26:04.088Z,98311.61
2019-01-18T18:29:29.788Z,98314.19
2019-01-18T18:32:38.255Z,98301.30
2019-01-18T18:35:46.323Z,98303.78
2019-01-18T18:38:49.686Z,98306.44
2019-01-18T18:41:47.606Z,98302.37
2019-01-18T18:44:42.601Z,98301.71
2019-01-18T18:47:58.619Z,98310.83
2019-01-18T18:51:05.759Z,98303.50
2019-01-18T18:54:15.857Z,98299.80
2019-01-18T18:57:33.169Z,98299.80
2019-01-18T19:00:44.863Z,98294.86
2019-01-18T19:04:08.001Z,98289.54
2019-01-18T19:07:09.560Z,98288.05
2019-01-18T19:09:51.355Z,98282.83
2019-01-18T19:12:46.849Z,98282.66
2019-01-18T19:15:51.071Z,98285.03
2019-01-18T19:18:37.636Z,98272.77
2019-01-18T19:22:04.455Z,98277.94
2019-01-18T19:25:10.699Z,98274.80
2019-01-18T19:28:17.886Z,98264.05
2019-01-18T19:31:08.106Z,98265.80
2019-01-18T19:34:04.216Z,98270.52
2019-01-18T19:36:57.740Z,98266.31
2019-01-18T19:39:51.295Z,98265.44
2019-01-18T19:43:07.515Z,98268.01
2019-01-18T19:45:59.152Z,98265.61
2019-01-18T19:48:54.941Z,98256.09
2019-01-18T19:51:51.219Z,98263.87
2019-01-18T19:54:50.190Z,98260.12
2019-01-18T19:57:51.176Z,98266.44
2019-01-18T20:01:05.629Z,98264.33
2019-01-18T20:04:11.685Z,98264.66
2019-01-18T20:07:07.049Z,98265.80
2019-01-18T20:10:24.135Z,98262.33
2019-01-18T20:13:37.712Z,98264.70
2019-01-18T20:16:34.217Z,98268.44
2019-01-18T20:19:40.288Z,98265.10
2019-01-18T20:22:39.546Z,98264.28
2019-01-18T20:25:44.701Z,98266.97
2019-01-18T20:28:32.145Z,98264.54
2019-01-18T20:31:45.301Z,98271.06
2019-01-18T20:34:51.450Z,98264.13
2019-01-18T20:38:01.250Z,98261.80
2019-01-18T20:41:18.306Z,98262.94
2019-01-18T20:44:25.525Z,98261.74
2019-01-18T20:47:32.972Z,98267.16
2019-01-18T20:50:22.700Z,98264.20
2019-01-18T20:53:40.617Z,98263.41
2019-01-18T20:56:45.136Z,98258.91
2019-01-18T21:00:10.716Z,98260.48
2019-01-18T21:03:04.211Z,98260.52
2019-01-18T21:06:12.838Z,98263.51
2019-01-18T21:09:11.755Z,98263.79
2019-01-18T21:11:58.767Z,98261.05
2019-01-18T21:15:07.077Z,98265.45
2019-01-18T21:18:07.326Z,98263.00
2019-01-18T21:21:15.475Z,98251.81
2019-01-18T21:24:20.036Z,98259.47
2019-01-18T21:27:18.472Z,98259.27
2019-01-18T21:30:17.831Z,98265.80
2019-01-18T21:33:23.529Z,98263.67
2019-01-18T21:36:40.167Z,98260.02
2019-01-18T21:39:51.823Z,98262.97
2019-01-18T21:43:07.690Z,98261.77
2019-01-18T21:46:01.872Z,98259.46
2019-01-18T21:48:57.652Z,98264.87
2019-01-18T21:52:03.181Z,98257.12
2019-01-18T21:54:45.574Z,98267.20
2019-01-18T21:58:00.973Z,98266.30
2019-01-18T22:01:11.336Z,98267.41
2019-01-18T22:04:11.460Z,98268.43
2019-01-18T22:07:21.631Z,98266.72
2019-01-18T22:10:23.297Z,98268.16
2019-01-18T22:13:30.331Z,98271.92
2019-01-18T22:16:55.009Z,98267.14
2019-01-18T22:20:19.021Z,98266.86
2019-01-18T22:23:34.075Z,98270.51
2019-01-18T22:26:57.594Z,98267.77
2019-01-18T22:29:55.201Z,98270.33
2019-01-18T22:32:52.146Z,98271.45
2019-01-18T22:36:18.626Z,98263.20
2019-01-18T22:39:17.638Z,98271.84
2019-01-18T22:42:28.194Z,98265.23
2019-01-18T22:45:32.722Z,98255.37
2019-01-18T22:48:25.096Z,98259.13
2019-01-18T22:51:39.749Z,98261.17
2019-01-18T22:55:05.152Z,98257.73
2019-01-18T22:58:06.894Z,98256.71
2019-01-18T23:01:21.348Z,98258.14
2019-01-18T23:04:12.203Z,98254.88
2019-01-18T23:07:20.706Z,98256.42
2019-01-18T23:10:33.849Z,98249.89
2019-01-18T23:13:28.655Z,98248.39
2019-01-18T23:16:37.640Z,98253.17
2019-01-18T23:19:56.401Z,98251.03
2019-01-18T23:22:59.879Z,98244.61
2019-01-18T23:25:54.816Z,98244.22
2019-01-18T23:28:51.740Z,98238.62
2019-01-18T23:31:38.216Z,98239.25
2019-01-18T23:35:06.057Z,98235.69
2019-01-18T23:38:08.624Z,98233.16
2019-01-18T23:41:21.844Z,98233.44
2019-01-18T23:44:35.926Z,98229.37
2019-01-18T23:47:36.391Z,98231.00
2019-01-18T23:50:56.603Z,98229.58
2019-01-18T23:53:44.163Z,98232.92
2019-01-18T23:56:45.335Z,98235.88
2019-01-18T23:59:35.541Z,98228.67
